createdAt,value
2019-06-10T00:02:31.180Z,99.90
2019-06-10T00:05:05.645Z,99.90
2019-06-10T00:07:41.221Z,99.90
2019-06-10T00:10:15.806Z,99.90
2019-06-10T00:12:51.725Z,99.90
2019-06-10T00:15:24.552Z,99.90
2019-06-10T00:18:18.962Z,99.90
2019-06-10T00:20:32.847Z,99.90
2019-06-10T00:23:07.170Z,99.90
2019-06-10T00:25:41.947Z,99.90
2019-06-10T00:28:15.201Z,99.90
2019-06-10T00:30:48.816Z,99.90
2019-06-10T00:33:22.739Z,99.90
2019-06-10T00:35:56.273Z,99.90
2019-06-10T00:38:31.686Z,99.90
2019-06-10T00:41:09.938Z,99.90
2019-06-10T00:43:44.257Z,99.90
2019-06-10T00:46:17.880Z,99.90
2019-06-10T00:48:51.387Z,99.90
2019-06-10T00:51:25.161Z,99.90
2019-06-10T00:53:58.597Z,99.90
2019-06-10T00:56:31.536Z,99.90
2019-06-10T00:59:05.850Z,99.90
2019-06-10T01:01:41.400Z,99.90
2019-06-10T01:04:16.096Z,99.90
2019-06-10T01:06:51.364Z,99.90
2019-06-10T01:09:25.625Z,99.90
2019-06-10T01:12:01.142Z,99.90
2019-06-10T01:14:34.352Z,99.90
2019-06-10T01:17:08.084Z,99.90
2019-06-10T01:19:41.754Z,99.90
2019-06-10T01:22:15.875Z,99.90
2019-06-10T01:24:51.125Z,99.90
2019-06-10T01:27:24.809Z,99.90
2019-06-10T01:29:58.464Z,99.90
2019-06-10T01:32:32.409Z,99.90
2019-06-10T01:35:06.558Z,99.90
2019-06-10T01:37:41.350Z,99.90
2019-06-10T01:40:16.858Z,99.90
2019-06-10T01:42:51.233Z,99.90
2019-06-10T01:45:24.864Z,99.90
2019-06-10T01:47:58.395Z,99.90
2019-06-10T01:50:31.879Z,99.90
2019-06-10T01:53:05.510Z,99.90
2019-06-10T01:55:41.456Z,99.90
2019-06-10T01:58:16.687Z,99.90
2019-06-10T02:01:05.666Z,99.90
2019-06-10T02:03:41.520Z,99.90
2019-06-10T02:06:18.312Z,99.90
2019-06-10T02:08:51.788Z,99.90
2019-06-10T02:11:25.617Z,99.90
2019-06-10T02:14:00.900Z,99.90
2019-06-10T02:16:34.090Z,99.90
2019-06-10T02:19:07.659Z,99.90
2019-06-10T02:21:41.801Z,99.90
2019-06-10T02:24:16.419Z,99.90
2019-06-10T02:26:51.644Z,99.90
2019-06-10T02:29:25.529Z,99.90
2019-06-10T02:32:04.373Z,99.90
2019-06-10T02:34:43.252Z,99.90
2019-06-10T02:37:15.629Z,99.90
2019-06-10T02:39:46.704Z,99.90
2019-06-10T02:42:35.919Z,99.90
2019-06-10T02:45:17.354Z,99.90
2019-06-10T02:47:46.114Z,99.90
2019-06-10T02:50:32.569Z,99.90
2019-06-10T02:53:04.007Z,99.90
2019-06-10T02:55:36.328Z,99.90
2019-06-10T02:58:13.625Z,99.90
2019-06-10T03:00:48.865Z,99.90
2019-06-10T03:03:31.670Z,99.90
2019-06-10T03:05:55.529Z,99.90
2019-06-10T03:08:31.690Z,99.90
2019-06-10T03:11:04.157Z,99.90
2019-06-10T03:13:37.339Z,99.90
2019-06-10T03:16:17.816Z,99.90
2019-06-10T03:18:52.578Z,99.90
2019-06-10T03:21:26.265Z,99.90
2019-06-10T03:23:59.397Z,99.90
2019-06-10T03:26:33.233Z,99.90
2019-06-10T03:29:07.357Z,99.90
2019-06-10T03:31:47.548Z,99.90
2019-06-10T03:34:18.197Z,99.90
2019-06-10T03:36:54.163Z,99.90
2019-06-10T03:39:28.665Z,99.90
2019-06-10T03:42:02.853Z,99.90
2019-06-10T03:44:36.157Z,99.90
2019-06-10T03:47:12.039Z,99.90
2019-06-10T03:49:51.902Z,99.90
2019-06-10T03:52:19.363Z,99.90
2019-06-10T03:54:52.590Z,99.90
2019-06-10T03:57:28.223Z,99.90
2019-06-10T04:00:03.537Z,99.90
2019-06-10T04:02:43.075Z,99.90
2019-06-10T04:05:17.473Z,99.90
2019-06-10T04:07:52.657Z,99.90
2019-06-10T04:10:28.189Z,99.90
2019-06-10T04:13:03.020Z,99.90
2019-06-10T04:15:36.431Z,99.90
2019-06-10T04:18:12.604Z,99.90
2019-06-10T04:20:46.219Z,99.90
2019-06-10T04:23:22.715Z,99.90
2019-06-10T04:25:56.068Z,99.90
2019-06-10T04:28:29.942Z,99.90
2019-06-10T04:31:04.374Z,99.90
2019-06-10T04:33:38.538Z,99.90
2019-06-10T04:36:13.573Z,99.90
2019-06-10T04:38:47.551Z,99.90
2019-06-10T04:41:23.017Z,99.90
2019-06-10T04:43:55.921Z,99.90
2019-06-10T04:46:29.626Z,99.90
2019-06-10T04:49:03.527Z,99.90
2019-06-10T04:51:43.448Z,99.90
2019-06-10T04:54:18.697Z,99.90
2019-06-10T04:56:53.072Z,99.90
2019-06-10T04:59:28.737Z,99.90
2019-06-10T05:02:03.449Z,99.90
2019-06-10T05:04:38.026Z,99.90
2019-06-10T05:07:12.709Z,99.90
2019-06-10T05:09:46.934Z,99.90
2019-06-10T05:12:23.340Z,99.90
2019-06-10T05:14:56.630Z,99.90
2019-06-10T05:17:31.758Z,99.90
2019-06-10T05:20:05.805Z,99.90
2019-06-10T05:22:42.203Z,99.90
2019-06-10T05:25:16.519Z,99.90
2019-06-10T05:27:52.233Z,99.90
2019-06-10T05:30:28.199Z,99.90
2019-06-10T05:33:02.966Z,99.90
2019-06-10T05:35:37.909Z,99.90
2019-06-10T05:38:12.854Z,99.90
2019-06-10T05:40:46.309Z,99.90
2019-06-10T05:43:21.962Z,99.90
2019-06-10T05:45:54.710Z,99.90
2019-06-10T05:48:28.356Z,99.90
2019-06-10T05:51:06.237Z,99.90
2019-06-10T05:53:37.457Z,99.90
2019-06-10T05:56:12.860Z,99.90
2019-06-10T05:58:45.839Z,99.90
2019-06-10T06:01:19.743Z,99.90
2019-06-10T06:04:00.138Z,99.90
2019-06-10T06:06:35.212Z,99.90
2019-06-10T06:09:12.496Z,99.90
2019-06-10T06:11:45.327Z,99.90
2019-06-10T06:14:19.028Z,99.90
2019-06-10T06:16:53.520Z,99.90
2019-06-10T06:19:28.169Z,99.90
2019-06-10T06:22:02.212Z,99.90
2019-06-10T06:24:37.893Z,99.90
2019-06-10T06:27:13.116Z,99.90
2019-06-10T06:29:48.605Z,99.90
2019-06-10T06:32:23.629Z,99.90
2019-06-10T06:34:57.156Z,99.90
2019-06-10T06:37:34.679Z,99.90
2019-06-10T06:40:06.319Z,99.90
2019-06-10T06:42:39.992Z,99.90
2019-06-10T06:45:13.657Z,99.90
2019-06-10T06:47:46.713Z,99.90
2019-06-10T06:50:25.435Z,99.90
2019-06-10T06:55:33.749Z,99.90
2019-06-10T06:58:08.030Z,99.90
2019-06-10T07:01:00.479Z,99.90
2019-06-10T07:03:19.163Z,99.90
2019-06-10T07:05:54.167Z,99.90
2019-06-10T07:08:30.821Z,99.90
2019-06-10T07:11:06.470Z,99.90
2019-06-10T07:13:45.551Z,99.90
2019-06-10T07:16:18.096Z,99.90
2019-06-10T07:18:54.202Z,99.90
2019-06-10T07:21:28.488Z,99.90
2019-06-10T07:24:06.793Z,99.90
2019-06-10T07:26:49.523Z,99.90
2019-06-10T07:29:18.371Z,99.90
2019-06-10T07:31:53.550Z,99.90
2019-06-10T07:34:28.097Z,99.90
2019-06-10T07:37:02.658Z,99.90
2019-06-10T07:39:38.021Z,99.90
2019-06-10T07:42:13.601Z,99.90
2019-06-10T07:44:48.006Z,99.90
2019-06-10T07:47:23.170Z,99.90
2019-06-10T07:49:57.747Z,99.90
2019-06-10T07:52:33.177Z,99.90
2019-06-10T07:55:07.309Z,99.90
2019-06-10T07:57:43.974Z,99.90
2019-06-10T08:00:18.975Z,99.90
2019-06-10T08:02:53.378Z,99.90
2019-06-10T08:05:28.592Z,99.90
2019-06-10T08:08:03.827Z,99.90
2019-06-10T08:10:39.220Z,99.90
2019-06-10T08:13:14.560Z,99.90
2019-06-10T08:15:49.834Z,99.90
2019-06-10T08:18:28.121Z,99.90
2019-06-10T08:21:03.195Z,99.90
2019-06-10T08:23:43.581Z,99.90
2019-06-10T08:26:17.775Z,99.90
2019-06-10T08:28:53.123Z,99.90
2019-06-10T08:31:27.220Z,99.90
2019-06-10T08:34:03.155Z,99.90
2019-06-10T08:36:39.567Z,99.90
2019-06-10T08:39:15.947Z,99.90
2019-06-10T08:41:49.355Z,99.90
2019-06-10T08:44:24.062Z,99.90
2019-06-10T08:46:57.922Z,99.90
2019-06-10T08:49:32.816Z,99.90
2019-06-10T08:52:06.579Z,99.90
2019-06-10T08:54:45.652Z,99.90
2019-06-10T08:57:17.608Z,99.90
2019-06-10T08:59:53.314Z,99.90
2019-06-10T09:02:26.639Z,99.90
2019-06-10T09:05:03.728Z,99.90
2019-06-10T09:07:39.683Z,99.90
2019-06-10T09:10:15.015Z,99.90
2019-06-10T09:12:54.154Z,99.90
2019-06-10T09:15:26.138Z,99.90
2019-06-10T09:18:06.814Z,99.90
2019-06-10T09:20:44.962Z,99.90
2019-06-10T09:23:24.812Z,99.90
2019-06-10T09:25:57.586Z,99.90
2019-06-10T09:28:32.896Z,99.90
2019-06-10T09:31:10.043Z,99.90
2019-06-10T09:33:49.868Z,99.90
2019-06-10T09:36:20.037Z,99.90
2019-06-10T09:39:04.204Z,99.90
2019-06-10T09:41:43.204Z,99.90
2019-06-10T09:44:15.055Z,99.90
2019-06-10T09:46:55.994Z,99.90
2019-06-10T09:49:28.870Z,99.90
2019-06-10T09:52:03.894Z,99.90
2019-06-10T09:54:38.575Z,99.90
2019-06-10T09:57:12.715Z,99.90
2019-06-10T09:59:51.731Z,99.90
2019-06-10T10:02:23.144Z,99.90
2019-06-10T10:05:06.998Z,99.90
2019-06-10T10:07:46.387Z,99.90
2019-06-10T10:10:24.024Z,99.90
2019-06-10T10:12:57.832Z,99.90
2019-06-10T10:15:34.569Z,99.90
2019-06-10T10:18:07.848Z,99.90
2019-06-10T10:20:47.840Z,99.90
2019-06-10T10:23:22.705Z,99.90
2019-06-10T10:25:57.597Z,99.90
2019-06-10T10:28:33.524Z,99.90
2019-06-10T10:31:08.631Z,99.90
2019-06-10T10:33:44.307Z,99.90
2019-06-10T10:36:22.639Z,99.90
2019-06-10T10:38:58.705Z,99.90
2019-06-10T10:41:35.298Z,99.90
2019-06-10T10:44:09.740Z,99.90
2019-06-10T10:46:45.595Z,99.90
2019-06-10T10:49:22.422Z,99.90
2019-06-10T10:51:57.128Z,99.90
2019-06-10T10:54:35.914Z,99.90
2019-06-10T10:57:08.568Z,99.90
2019-06-10T10:59:43.538Z,99.90
2019-06-10T11:02:18.077Z,99.70
2019-06-10T11:04:55.421Z,99.60
2019-06-10T11:07:33.338Z,99.40
2019-06-10T11:10:08.522Z,98.80
2019-06-10T11:12:46.953Z,97.70
2019-06-10T11:15:25.890Z,96.20
2019-06-10T11:18:03.689Z,96.30
2019-06-10T11:20:36.411Z,96.10
2019-06-10T11:23:12.342Z,95.10
2019-06-10T11:25:49.820Z,95.10
2019-06-10T11:28:25.465Z,95.10
2019-06-10T11:31:00.398Z,95.40
2019-06-10T11:33:36.437Z,96.50
2019-06-10T11:36:13.592Z,95.80
2019-06-10T11:38:56.746Z,96.50
2019-06-10T11:41:34.315Z,97.10
2019-06-10T11:44:12.471Z,97.10
2019-06-10T11:46:48.617Z,97.10
2019-06-10T11:49:24.150Z,96.10
2019-06-10T11:52:03.054Z,95.40
2019-06-10T11:54:50.629Z,95.80
2019-06-10T11:57:14.540Z,96.40
2019-06-10T11:59:59.508Z,95.80
2019-06-10T12:02:42.367Z,96.20
2019-06-10T12:05:23.432Z,95.70
2019-06-10T12:08:05.711Z,94.30
2019-06-10T12:10:45.501Z,93.10
2019-06-10T12:13:34.192Z,91.10
2019-06-10T12:17:15.569Z,91.30
2019-06-10T12:19:12.719Z,90.40
2019-06-10T12:22:13.341Z,90.00
2019-06-10T12:25:30.515Z,87.70
2019-06-10T12:27:44.979Z,87.70
2019-06-10T12:30:22.669Z,86.30
2019-06-10T12:33:05.604Z,86.60
2019-06-10T12:35:43.981Z,83.70
2019-06-10T12:38:28.063Z,86.50
2019-06-10T12:41:09.013Z,86.90
2019-06-10T12:43:46.095Z,86.20
2019-06-10T12:46:23.869Z,87.60
2019-06-10T12:49:02.089Z,89.70
2019-06-10T12:51:44.038Z,90.10
2019-06-10T12:54:22.610Z,91.10
2019-06-10T12:57:06.834Z,91.40
2019-06-10T12:59:43.119Z,90.90
2019-06-10T13:02:30.492Z,91.20
2019-06-10T13:05:05.689Z,91.60
2019-06-10T13:07:42.901Z,90.80
2019-06-10T13:10:28.330Z,90.90
2019-06-10T13:13:07.222Z,89.70
2019-06-10T13:15:44.997Z,89.80
2019-06-10T13:18:23.479Z,90.30
2019-06-10T13:21:01.944Z,90.50
2019-06-10T13:23:36.236Z,90.70
2019-06-10T13:26:23.370Z,90.90
2019-06-10T13:28:58.966Z,90.70
2019-06-10T13:31:34.275Z,90.80
2019-06-10T13:34:11.244Z,90.80
2019-06-10T13:36:47.769Z,90.70
2019-06-10T13:39:22.463Z,90.60
2019-06-10T13:41:59.760Z,91.10
2019-06-10T13:44:37.340Z,91.80
2019-06-10T13:47:14.666Z,90.70
2019-06-10T13:49:50.069Z,92.40
2019-06-10T13:52:24.083Z,92.30
2019-06-10T13:54:58.765Z,91.50
2019-06-10T13:57:33.821Z,91.90
2019-06-10T14:00:11.482Z,92.40
2019-06-10T14:02:52.266Z,92.70
2019-06-10T14:05:22.577Z,93.20
2019-06-10T14:07:57.402Z,92.10
2019-06-10T14:10:35.660Z,92.50
2019-06-10T14:13:10.714Z,93.40
2019-06-10T14:15:47.209Z,93.30
2019-06-10T14:18:23.182Z,93.80
2019-06-10T14:20:57.377Z,93.30
2019-06-10T14:23:33.140Z,92.20
2019-06-10T14:26:07.986Z,94.00
2019-06-10T14:28:44.317Z,92.80
2019-06-10T14:31:38.714Z,92.90
2019-06-10T14:33:53.667Z,93.70
2019-06-10T14:36:37.564Z,93.80
2019-06-10T14:39:13.126Z,93.90
2019-06-10T14:41:48.130Z,94.70
2019-06-10T14:44:23.403Z,94.60
2019-06-10T14:46:58.010Z,94.70
2019-06-10T14:49:37.928Z,95.10
2019-06-10T14:52:13.882Z,95.30
2019-06-10T14:54:53.172Z,96.10
2019-06-10T14:57:26.085Z,96.40
2019-06-10T15:00:02.690Z,94.70
2019-06-10T15:02:35.229Z,94.70
2019-06-10T15:05:09.368Z,95.70
2019-06-10T15:07:43.121Z,94.80
2019-06-10T15:10:17.905Z,94.20
2019-06-10T15:12:52.872Z,94.60
2019-06-10T15:15:28.527Z,94.40
2019-06-10T15:18:03.944Z,94.10
2019-06-10T15:20:44.375Z,94.40
2019-06-10T15:23:21.012Z,94.40
2019-06-10T15:25:57.167Z,94.00
2019-06-10T15:28:31.058Z,94.50
2019-06-10T15:31:05.153Z,94.50
2019-06-10T15:33:39.184Z,94.40
2019-06-10T15:36:13.599Z,93.40
2019-06-10T15:38:47.856Z,93.40
2019-06-10T15:41:24.649Z,93.70
2019-06-10T15:43:59.582Z,93.30
2019-06-10T15:46:35.321Z,93.40
2019-06-10T15:49:14.592Z,93.30
2019-06-10T15:51:46.776Z,92.90
2019-06-10T15:54:25.098Z,93.10
2019-06-10T15:56:58.929Z,93.20
2019-06-10T15:59:39.172Z,93.30
2019-06-10T16:02:19.288Z,93.40
2019-06-10T16:04:52.853Z,93.30
2019-06-10T16:07:27.861Z,93.20
2019-06-10T16:10:02.866Z,92.70
2019-06-10T16:12:43.626Z,92.60
2019-06-10T16:15:18.158Z,93.70
2019-06-10T16:17:54.550Z,94.70
2019-06-10T16:20:32.341Z,95.20
2019-06-10T16:23:05.842Z,94.30
2019-06-10T16:25:43.313Z,94.50
2019-06-10T16:28:18.219Z,94.70
2019-06-10T16:30:53.722Z,95.20
2019-06-10T16:33:28.062Z,95.50
2019-06-10T16:36:06.030Z,94.70
2019-06-10T16:38:42.322Z,95.50
2019-06-10T16:41:17.561Z,94.90
2019-06-10T16:43:52.275Z,97.20
2019-06-10T16:46:27.018Z,95.70
2019-06-10T16:49:03.228Z,95.80
2019-06-10T16:51:38.288Z,95.60
2019-06-10T16:54:14.512Z,96.00
2019-06-10T16:56:52.613Z,97.50
2019-06-10T16:59:27.991Z,95.60
2019-06-10T17:02:06.956Z,95.70
2019-06-10T17:04:43.561Z,95.80
2019-06-10T17:07:18.521Z,96.00
2019-06-10T17:09:52.901Z,97.20
2019-06-10T17:12:28.754Z,97.70
2019-06-10T17:15:04.936Z,96.80
2019-06-10T17:17:41.910Z,95.40
2019-06-10T17:20:18.572Z,96.60
2019-06-10T17:22:53.965Z,96.20
2019-06-10T17:25:33.859Z,96.40
2019-06-10T17:28:18.217Z,96.90
2019-06-10T17:30:47.885Z,96.70
2019-06-10T17:33:25.744Z,97.10
2019-06-10T17:36:12.462Z,98.90
2019-06-10T17:38:46.947Z,98.00
2019-06-10T17:41:25.476Z,99.00
2019-06-10T17:44:02.646Z,99.10
2019-06-10T17:46:52.762Z,99.10
2019-06-10T17:49:25.460Z,99.40
2019-06-10T17:52:02.403Z,98.10
2019-06-10T17:54:36.835Z,98.70
2019-06-10T17:57:15.020Z,99.70
2019-06-10T17:59:52.102Z,99.30
2019-06-10T18:02:31.840Z,98.80
2019-06-10T18:05:08.770Z,98.70
2019-06-10T18:07:44.034Z,98.00
2019-06-10T18:10:19.331Z,97.70
2019-06-10T18:12:54.301Z,97.90
2019-06-10T18:15:33.303Z,97.70
2019-06-10T18:18:08.020Z,98.30
2019-06-10T18:21:03.188Z,98.70
2019-06-10T18:23:43.565Z,99.10
2019-06-10T18:26:17.925Z,99.20
2019-06-10T18:29:03.860Z,99.10
2019-06-10T18:31:29.503Z,98.50
2019-06-10T18:34:04.038Z,98.00
2019-06-10T18:36:38.225Z,98.50
2019-06-10T18:39:13.058Z,98.40
2019-06-10T18:41:48.094Z,99.40
2019-06-10T18:44:26.013Z,99.80
2019-06-10T18:46:59.282Z,99.10
2019-06-10T18:49:35.910Z,99.90
2019-06-10T18:52:13.805Z,99.90
2019-06-10T18:54:48.069Z,99.90
2019-06-10T18:57:25.091Z,99.90
2019-06-10T19:00:11.934Z,99.70
2019-06-10T19:03:08.217Z,99.20
2019-06-10T19:05:28.510Z,98.60
2019-06-10T19:08:04.082Z,98.20
2019-06-10T19:10:40.743Z,99.30
2019-06-10T19:13:19.437Z,99.90
2019-06-10T19:15:57.099Z,99.90
2019-06-10T19:18:31.938Z,99.90
2019-06-10T19:21:08.824Z,99.90
2019-06-10T19:23:45.378Z,99.60
2019-06-10T19:26:21.986Z,99.90
2019-06-10T19:28:57.520Z,99.90
2019-06-10T19:31:36.265Z,99.90
2019-06-10T19:34:08.483Z,99.90
2019-06-10T19:36:48.271Z,99.70
2019-06-10T19:39:25.490Z,99.80
2019-06-10T19:42:02.654Z,99.80
2019-06-10T19:44:37.085Z,99.70
2019-06-10T19:47:12.951Z,99.90
2019-06-10T19:49:47.047Z,99.90
2019-06-10T19:52:23.435Z,99.90
2019-06-10T19:54:57.853Z,99.90
2019-06-10T19:57:32.745Z,99.90
2019-06-10T20:00:12.153Z,99.90
2019-06-10T20:02:46.994Z,99.90
2019-06-10T20:05:23.171Z,99.90
2019-06-10T20:08:03.069Z,99.90
2019-06-10T20:10:44.510Z,99.90
2019-06-10T20:13:26.703Z,99.90
2019-06-10T20:16:14.434Z,99.90
2019-06-10T20:19:03.161Z,99.90
2019-06-10T20:21:46.635Z,99.90
2019-06-10T20:24:34.032Z,99.90
2019-06-10T20:27:29.908Z,99.90
2019-06-10T20:30:25.130Z,99.90
2019-06-10T20:32:59.124Z,99.90
2019-06-10T20:35:45.638Z,99.90
2019-06-10T20:38:29.866Z,99.90
2019-06-10T20:41:27.615Z,99.90
2019-06-10T20:44:13.104Z,99.90
2019-06-10T20:46:52.940Z,99.90
2019-06-10T20:49:37.732Z,99.90
2019-06-10T20:52:27.324Z,99.90
2019-06-10T20:55:04.217Z,99.90
2019-06-10T20:57:55.890Z,99.90
2019-06-10T21:00:51.026Z,99.90
2019-06-10T21:03:38.998Z,99.90
2019-06-10T21:06:13.507Z,99.90
2019-06-10T21:08:55.702Z,99.90
2019-06-10T21:11:45.045Z,99.90
2019-06-10T21:14:42.446Z,99.90
2019-06-10T21:17:22.757Z,99.90
2019-06-10T21:20:03.431Z,99.90
2019-06-10T21:22:47.417Z,99.90
2019-06-10T21:25:23.032Z,99.90
2019-06-10T21:28:13.618Z,99.90
2019-06-10T21:31:11.464Z,99.90
2019-06-10T21:33:49.069Z,99.90
2019-06-10T21:36:23.102Z,99.90
2019-06-10T21:38:57.626Z,99.90
2019-06-10T21:41:35.578Z,99.90
2019-06-10T21:44:14.775Z,99.90
2019-06-10T21:46:50.408Z,99.90
2019-06-10T21:49:32.093Z,99.90
2019-06-10T21:52:07.616Z,99.90
2019-06-10T21:54:44.024Z,99.90
2019-06-10T21:57:18.401Z,99.90
2019-06-10T21:59:54.930Z,99.90
2019-06-10T22:02:28.803Z,99.90
2019-06-10T22:05:03.451Z,99.90
2019-06-10T22:07:42.152Z,99.90
2019-06-10T22:10:15.985Z,99.90
2019-06-10T22:12:55.673Z,99.90
2019-06-10T22:15:28.843Z,99.90
2019-06-10T22:18:04.315Z,99.90
2019-06-10T22:20:38.717Z,99.90
2019-06-10T22:23:16.469Z,99.90
2019-06-10T22:25:53.645Z,99.90
2019-06-10T22:28:28.424Z,99.90
2019-06-10T22:31:15.973Z,99.90
2019-06-10T22:33:38.549Z,99.90
2019-06-10T22:36:13.718Z,99.90
2019-06-10T22:38:47.890Z,99.90
2019-06-10T22:41:22.560Z,99.90
2019-06-10T22:43:57.567Z,99.90
2019-06-10T22:46:32.418Z,99.90
2019-06-10T22:49:06.490Z,99.90
2019-06-10T22:51:42.908Z,99.90
2019-06-10T22:54:16.752Z,99.90
2019-06-10T22:56:54.209Z,99.90
2019-06-10T22:59:26.228Z,99.90
2019-06-10T23:02:00.182Z,99.90
2019-06-10T23:04:35.351Z,99.90
2019-06-10T23:07:09.592Z,99.90
2019-06-10T23:09:44.113Z,99.90
2019-06-10T23:12:18.626Z,99.90
2019-06-10T23:14:53.624Z,99.90
2019-06-10T23:17:29.320Z,99.90
2019-06-10T23:20:03.597Z,99.90
2019-06-10T23:22:37.647Z,99.90
2019-06-10T23:25:12.678Z,99.90
2019-06-10T23:27:46.764Z,99.90
2019-06-10T23:30:22.417Z,99.90
2019-06-10T23:32:56.508Z,99.90
2019-06-10T23:35:32.291Z,99.90
2019-06-10T23:38:05.889Z,99.90
2019-06-10T23:40:39.430Z,99.90
2019-06-10T23:43:13.461Z,99.90
2019-06-10T23:45:48.018Z,99.90
2019-06-10T23:48:22.900Z,99.90
2019-06-10T23:50:57.757Z,99.90
2019-06-10T23:53:32.865Z,99.90
2019-06-10T23:56:06.796Z,99.90
2019-06-10T23:58:40.403Z,99.90
